Time;durP1;ratioP1;P1;durP2;ratioP2;P2;SDS_P1;SDS_P2;PMS_P1;PMS_P2;Temp;Humidity;BMP_temperature;BMP_pressure;BME280_temperature;BME280_humidity;BME280_pressure;Samples;Min_cycle;Max_cycle;Signal;HPM_P1;HPM_P2
2023/09/01 00:00:24;;;;;;;4.40;2.57;;;13.40;1.00;;;;;;5115841;28;20666;-54
2023/09/01 00:02:51;;;;;;;14.97;2.83;;;13.60;99.90;;;;;;5115827;28;20262;-53
2023/09/01 00:05:16;;;;;;;5.77;3.10;;;13.50;99.90;;;;;;5115588;28;20465;-53
2023/09/01 00:07:42;;;;;;;3.97;2.93;;;13.50;99.90;;;;;;5115793;28;20467;-53
2023/09/01 00:10:08;;;;;;;7.80;2.97;;;13.50;99.90;;;;;;5116024;28;20195;-54
2023/09/01 00:12:33;;;;;;;7.10;2.87;;;13.40;1.00;;;;;;5115949;28;20612;-53
2023/09/01 00:14:59;;;;;;;4.90;2.80;;;13.50;1.00;;;;;;5115574;28;20187;-54
2023/09/01 00:17:25;;;;;;;6.23;2.50;;;13.50;1.00;;;;;;5115767;28;20176;-54
2023/09/01 00:19:50;;;;;;;7.50;2.80;;;13.50;12.40;;;;;;5115963;28;20630;-53
2023/09/01 00:22:16;;;;;;;7.07;3.30;;;13.60;1.00;;;;;;5115216;28;20640;-54
2023/09/01 00:24:41;;;;;;;8.63;3.20;;;13.60;99.90;;;;;;5115278;28;20204;-53
2023/09/01 00:27:07;;;;;;;6.80;3.10;;;13.60;99.90;;;;;;5115755;28;20184;-54
2023/09/01 00:29:34;;;;;;;7.83;2.90;;;13.50;99.90;;;;;;5115447;28;20270;-54
2023/09/01 00:32:00;;;;;;;5.00;2.83;;;13.50;1.00;;;;;;5115417;28;20517;-53
2023/09/01 00:34:26;;;;;;;9.00;2.57;;;13.50;1.00;;;;;;5115213;28;20449;-54
2023/09/01 00:36:52;;;;;;;7.80;2.37;;;13.60;1.00;;;;;;5115443;28;20416;-54
2023/09/01 00:39:17;;;;;;;7.10;3.00;;;13.70;1.00;;;;;;5115334;28;20187;-53
2023/09/01 00:41:43;;;;;;;4.80;2.73;;;13.70;99.90;;;;;;5114988;28;20188;-54
2023/09/01 00:44:10;;;;;;;5.53;2.70;;;13.80;99.90;;;;;;5114840;28;20289;-54
2023/09/01 00:46:36;;;;;;;4.43;2.67;;;13.80;1.00;;;;;;5115024;28;20192;-54
2023/09/01 00:49:02;;;;;;;5.00;2.83;;;13.80;99.90;;;;;;5115084;28;20468;-54
2023/09/01 00:51:28;;;;;;;7.53;3.27;;;13.70;99.90;;;;;;5114918;28;20212;-53
2023/09/01 00:53:55;;;;;;;7.73;3.00;;;13.70;1.00;;;;;;5114077;28;20456;-54
2023/09/01 00:56:21;;;;;;;8.40;2.87;;;13.70;1.00;;;;;;5114645;28;20181;-54
2023/09/01 00:58:47;;;;;;;7.33;2.80;;;13.60;29.30;;;;;;5114949;28;20418;-53
2023/09/01 01:01:12;;;;;;;7.03;3.60;;;13.60;1.90;;;;;;5115010;28;20179;-53
2023/09/01 01:03:39;;;;;;;4.83;3.23;;;13.50;1.00;;;;;;5114587;28;20859;-52
2023/09/01 01:06:11;;;;;;;4.07;2.90;;;13.50;1.00;;;;;;5114913;28;20188;-53
2023/09/01 01:09:08;;;;;;;6.93;3.00;;;13.50;99.90;;;;;;5114795;28;20516;-54
2023/09/01 01:11:43;;;;;;;6.30;3.00;;;13.50;56.60;;;;;;5114671;28;20458;-53
2023/09/01 01:14:19;;;;;;;9.20;3.60;;;13.40;1.00;;;;;;5114448;28;20495;-53
2023/09/01 01:16:44;;;;;;;11.13;3.27;;;13.40;52.30;;;;;;5114357;28;20942;-53
2023/09/01 01:19:45;;;;;;;5.10;2.83;;;13.30;1.00;;;;;;5114836;28;20412;-54
2023/09/01 01:22:11;;;;;;;9.07;3.53;;;13.20;1.00;;;;;;5088094;28;20227;-54
2023/09/01 01:24:37;;;;;;;12.53;3.60;;;13.20;1.00;;;;;;5114069;28;20793;-53
2023/09/01 01:27:03;;;;;;;6.67;3.13;;;13.30;1.00;;;;;;5114462;28;20488;-53
2023/09/01 01:29:28;;;;;;;8.10;3.10;;;13.30;68.20;;;;;;5114443;28;20178;-53
2023/09/01 01:31:55;;;;;;;5.17;2.50;;;13.40;99.90;;;;;;5114280;28;20253;-53
2023/09/01 01:34:38;;;;;;;4.07;3.37;;;13.50;99.90;;;;;;5114717;28;20192;-54
2023/09/01 01:37:16;;;;;;;7.97;3.40;;;13.50;99.90;;;;;;5114231;28;20429;-53
2023/09/01 01:39:45;;;;;;;6.07;2.90;;;13.40;99.90;;;;;;5114105;28;20414;-53
2023/09/01 01:42:15;;;;;;;4.47;2.77;;;13.30;99.90;;;;;;5114507;28;20448;-53
2023/09/01 01:44:46;;;;;;;7.63;3.10;;;13.30;99.90;;;;;;5114448;28;20565;-53
2023/09/01 01:47:12;;;;;;;3.90;3.00;;;13.30;99.90;;;;;;5114432;28;20417;-52
2023/09/01 01:49:38;;;;;;;4.50;3.50;;;13.30;1.00;;;;;;5114247;28;20458;-54
2023/09/01 01:52:04;;;;;;;5.57;3.57;;;13.30;99.90;;;;;;5113694;28;20409;-53
2023/09/01 01:54:31;;;;;;;5.80;2.60;;;13.20;1.00;;;;;;5113909;28;20191;-53
2023/09/01 01:56:57;;;;;;;5.70;3.27;;;13.20;15.10;;;;;;5113627;28;20426;-53
2023/09/01 01:59:22;;;;;;;10.80;3.27;;;13.20;99.90;;;;;;5113758;28;20414;-52
2023/09/01 02:01:48;;;;;;;6.33;3.20;;;13.10;99.90;;;;;;5113672;28;20432;-53
2023/09/01 02:04:14;;;;;;;17.63;4.70;;;13.10;99.90;;;;;;5112934;28;20215;-53
2023/09/01 02:06:40;;;;;;;8.30;3.70;;;13.10;99.90;;;;;;5113927;28;20275;-53
2023/09/01 02:09:09;;;;;;;4.43;3.20;;;13.00;1.00;;;;;;5114129;28;20192;-53
2023/09/01 02:11:36;;;;;;;5.73;3.20;;;13.00;1.00;;;;;;5113983;28;20180;-52
2023/09/01 02:14:02;;;;;;;7.70;3.80;;;12.90;1.00;;;;;;5113802;28;20761;-52
2023/09/01 02:16:27;;;;;;;10.13;4.93;;;12.90;1.00;;;;;;5113682;28;20428;-52
2023/09/01 02:18:53;;;;;;;5.53;3.50;;;12.80;1.00;;;;;;5114107;28;20190;-52
2023/09/01 02:21:20;;;;;;;7.50;3.13;;;12.90;99.90;;;;;;5114142;28;20175;-52
2023/09/01 02:23:49;;;;;;;5.10;3.43;;;13.00;1.00;;;;;;5113599;28;20207;-53
2023/09/01 02:26:21;;;;;;;10.10;3.50;;;13.00;1.00;;;;;;5113618;28;20418;-52
2023/09/01 02:28:47;;;;;;;10.60;4.10;;;12.90;99.90;;;;;;5113407;28;20481;-53
2023/09/01 02:31:14;;;;;;;8.27;4.23;;;12.80;99.90;;;;;;5113190;28;20470;-52
2023/09/01 02:33:39;;;;;;;5.10;3.37;;;12.80;1.00;;;;;;5113612;28;20428;-52
2023/09/01 02:36:25;;;;;;;5.57;3.23;;;12.80;99.90;;;;;;5113913;28;20413;-53
2023/09/01 02:38:51;;;;;;;7.13;3.17;;;12.80;99.90;;;;;;5113504;28;20183;-53
2023/09/01 02:41:17;;;;;;;8.00;3.90;;;12.80;1.00;;;;;;5113823;28;20451;-52
2023/09/01 02:43:42;;;;;;;8.20;3.77;;;12.70;1.00;;;;;;5113547;28;20829;-52
2023/09/01 02:46:08;;;;;;;15.27;4.30;;;12.80;1.00;;;;;;5113465;28;20819;-53
2023/09/01 02:48:33;;;;;;;6.00;4.00;;;12.80;99.90;;;;;;5113541;28;20179;-53
2023/09/01 02:50:59;;;;;;;6.87;4.20;;;12.80;99.90;;;;;;5113616;28;20624;-52
2023/09/01 02:53:28;;;;;;;4.23;3.17;;;12.80;1.00;;;;;;5113085;28;20264;-52
2023/09/01 02:55:53;;;;;;;6.80;3.87;;;12.80;1.00;;;;;;5113807;28;20226;-52
2023/09/01 02:58:19;;;;;;;5.70;4.20;;;12.70;1.00;;;;;;5113333;28;20502;-53
2023/09/01 03:00:45;;;;;;;8.87;3.97;;;12.70;1.00;;;;;;5113380;28;20183;-54
2023/09/01 03:03:11;;;;;;;5.10;3.20;;;12.70;1.00;;;;;;5113634;28;20185;-53
2023/09/01 03:05:37;;;;;;;4.57;3.83;;;12.80;99.90;;;;;;5113364;28;20462;-53
2023/09/01 03:08:03;;;;;;;9.97;4.07;;;12.70;1.00;;;;;;5113349;28;20188;-53
2023/09/01 03:10:28;;;;;;;8.67;4.00;;;12.80;88.90;;;;;;5113286;28;20187;-52
2023/09/01 03:12:54;;;;;;;6.80;3.23;;;12.80;99.90;;;;;;5113382;28;20172;-52
2023/09/01 03:15:19;;;;;;;9.33;3.40;;;12.80;1.00;;;;;;5114022;28;20183;-53
2023/09/01 03:17:45;;;;;;;8.30;4.17;;;12.90;99.90;;;;;;5116655;28;20195;-53
2023/09/01 03:20:12;;;;;;;5.70;2.87;;;12.90;99.90;;;;;;5116596;28;20192;-53
2023/09/01 03:22:38;;;;;;;6.63;3.43;;;13.00;1.00;;;;;;5116657;28;20231;-52
2023/09/01 03:25:09;;;;;;;7.07;3.73;;;13.10;1.00;;;;;;5116630;28;20518;-53
2023/09/01 03:27:38;;;;;;;10.47;4.23;;;13.10;99.90;;;;;;5116852;28;20262;-52
2023/09/01 03:30:05;;;;;;;11.20;3.63;;;13.00;99.90;;;;;;5116461;28;20422;-53
2023/09/01 03:32:30;;;;;;;6.77;3.03;;;13.00;1.00;;;;;;5116167;28;20516;-53
2023/09/01 03:34:56;;;;;;;11.70;3.97;;;13.10;31.90;;;;;;5116884;28;20498;-53
2023/09/01 03:37:22;;;;;;;12.53;3.80;;;13.10;1.00;;;;;;5116635;28;20178;-54
2023/09/01 03:39:48;;;;;;;5.53;3.40;;;13.00;1.00;;;;;;5116699;28;20182;-53
2023/09/01 03:42:14;;;;;;;5.57;3.30;;;13.00;1.00;;;;;;5116516;28;21038;-53
2023/09/01 03:44:40;;;;;;;4.03;3.30;;;12.90;99.90;;;;;;5116425;28;20461;-54
2023/09/01 03:47:06;;;;;;;5.63;3.73;;;13.00;1.00;;;;;;5116558;28;20188;-54
2023/09/01 03:49:31;;;;;;;5.20;3.07;;;12.90;48.90;;;;;;5115860;28;20258;-53
2023/09/01 03:51:58;;;;;;;9.80;3.50;;;12.90;91.00;;;;;;5116251;28;20981;-53
2023/09/01 03:54:24;;;;;;;4.97;3.70;;;12.90;1.00;;;;;;5116415;28;20191;-53
2023/09/01 03:56:50;;;;;;;9.40;3.00;;;12.90;99.90;;;;;;5115867;28;20746;-53
2023/09/01 03:59:15;;;;;;;9.10;3.50;;;13.00;1.00;;;;;;5116314;28;20241;-53
2023/09/01 04:01:44;;;;;;;7.00;3.30;;;13.00;1.00;;;;;;5115909;28;20658;-53
2023/09/01 04:04:10;;;;;;;6.27;3.30;;;13.00;1.00;;;;;;5116157;28;20215;-52
2023/09/01 04:06:36;;;;;;;4.53;3.10;;;13.00;44.70;;;;;;5116204;28;20909;-53
2023/09/01 04:09:01;;;;;;;9.10;3.57;;;13.00;1.00;;;;;;5115708;28;20452;-53
2023/09/01 04:11:27;;;;;;;7.40;3.57;;;13.00;1.00;;;;;;5115612;28;20708;-53
2023/09/01 04:13:55;;;;;;;7.00;3.30;;;13.00;1.00;;;;;;5115698;28;20530;-53
2023/09/01 04:16:21;;;;;;;6.83;3.30;;;13.10;99.90;;;;;;5115440;28;20192;-53
2023/09/01 04:18:47;;;;;;;10.13;3.43;;;13.10;1.00;;;;;;5115663;28;20434;-53
2023/09/01 04:21:13;;;;;;;11.47;3.90;;;13.00;99.90;;;;;;5115826;28;20180;-53
2023/09/01 04:23:40;;;;;;;13.23;3.70;;;12.90;17.60;;;;;;5115588;28;20468;-53
2023/09/01 04:26:06;;;;;;;11.60;3.83;;;12.80;88.40;;;;;;5115601;28;20575;-52
2023/09/01 04:28:32;;;;;;;4.37;3.30;;;13.00;1.00;;;;;;5114567;28;20421;-53
2023/09/01 04:31:01;;;;;;;6.17;3.57;;;13.00;1.00;;;;;;5115296;28;20467;-54
2023/09/01 04:33:27;;;;;;;5.60;3.03;;;12.90;1.00;;;;;;5115346;28;20624;-52
2023/09/01 04:35:59;;;;;;;4.90;3.40;;;12.90;1.00;;;;;;5115587;28;20425;-53
2023/09/01 04:38:24;;;;;;;5.47;3.03;;;12.90;60.90;;;;;;5115162;28;20691;-53
2023/09/01 04:40:59;;;;;;;11.70;3.70;;;12.90;99.90;;;;;;5115232;28;20437;-53
2023/09/01 04:43:26;;;;;;;5.87;3.07;;;12.90;99.90;;;;;;5115052;28;20176;-54
2023/09/01 04:45:56;;;;;;;5.00;3.13;;;13.00;1.00;;;;;;5114766;28;20461;-52
2023/09/01 04:48:22;;;;;;;6.43;3.30;;;13.00;1.00;;;;;;5114965;28;20417;-53
2023/09/01 04:50:47;;;;;;;9.00;3.30;;;13.10;99.90;;;;;;5115099;28;20413;-53
2023/09/01 04:53:14;;;;;;;9.10;3.50;;;13.10;1.00;;;;;;5115256;28;20188;-53
2023/09/01 04:55:40;;;;;;;6.40;3.50;;;13.10;99.90;;;;;;5115038;28;20188;-53
2023/09/01 04:58:05;;;;;;;5.83;2.70;;;13.10;1.00;;;;;;5115204;28;20424;-52
2023/09/01 05:00:31;;;;;;;9.37;3.30;;;13.10;99.90;;;;;;5114909;28;20209;-53
2023/09/01 05:02:56;;;;;;;6.10;3.50;;;13.10;99.90;;;;;;5114718;28;20188;-52
2023/09/01 05:05:22;;;;;;;5.90;3.70;;;13.20;99.90;;;;;;5114692;28;20697;-53
2023/09/01 05:07:48;;;;;;;6.33;3.60;;;13.10;1.00;;;;;;5114566;28;20684;-53
2023/09/01 05:10:13;;;;;;;8.70;3.43;;;13.10;99.90;;;;;;5114601;28;20186;-53
2023/09/01 05:12:39;;;;;;;7.33;3.73;;;13.00;99.90;;;;;;5114606;28;20254;-53
2023/09/01 05:15:05;;;;;;;9.67;3.93;;;12.90;92.30;;;;;;5114529;28;20218;-53
2023/09/01 05:17:31;;;;;;;12.00;3.67;;;12.90;99.90;;;;;;5114566;28;20620;-52
2023/09/01 05:19:57;;;;;;;4.90;3.83;;;12.90;99.90;;;;;;5114644;28;20469;-53
2023/09/01 05:22:23;;;;;;;7.03;4.30;;;12.90;53.40;;;;;;5114377;28;20568;-53
2023/09/01 05:24:49;;;;;;;6.80;4.10;;;12.90;99.90;;;;;;5114381;28;20461;-52
2023/09/01 05:27:19;;;;;;;6.67;4.23;;;12.90;1.00;;;;;;5114520;28;20829;-53
2023/09/01 05:29:45;;;;;;;5.10;4.10;;;12.90;99.90;;;;;;5114345;28;20188;-53
2023/09/01 05:32:11;;;;;;;8.40;4.60;;;12.90;1.00;;;;;;5114421;28;20754;-53
2023/09/01 05:34:37;;;;;;;11.43;4.53;;;12.90;46.30;;;;;;5114183;28;20425;-53
2023/09/01 05:37:02;;;;;;;5.87;3.57;;;13.00;99.90;;;;;;5114490;28;20235;-52
2023/09/01 05:39:28;;;;;;;10.40;4.20;;;13.10;1.00;;;;;;5114178;28;20593;-53
2023/09/01 05:41:54;;;;;;;3.40;3.10;;;13.20;1.00;;;;;;5114283;28;20175;-53
2023/09/01 05:44:20;;;;;;;8.47;3.50;;;13.30;99.90;;;;;;5113671;28;20483;-53
2023/09/01 05:46:45;;;;;;;5.77;3.70;;;13.30;99.90;;;;;;5113971;28;20196;-52
2023/09/01 05:49:11;;;;;;;4.17;3.60;;;13.40;99.90;;;;;;5113576;28;20420;-53
2023/09/01 05:51:36;;;;;;;10.90;3.50;;;13.40;1.00;;;;;;5113457;28;20185;-53
2023/09/01 05:54:02;;;;;;;7.10;3.80;;;13.40;1.00;;;;;;5114153;28;20221;-54
2023/09/01 05:56:28;;;;;;;8.53;4.40;;;13.50;1.00;;;;;;5114106;28;20245;-52
2023/09/01 05:58:53;;;;;;;6.23;3.50;;;13.50;1.00;;;;;;5114261;28;20199;-53
2023/09/01 06:01:19;;;;;;;9.47;4.03;;;13.70;99.90;;;;;;5114008;28;20757;-54
2023/09/01 06:03:45;;;;;;;6.90;3.73;;;13.70;90.10;;;;;;5113506;28;20286;-53
2023/09/01 06:06:10;;;;;;;7.97;4.57;;;13.80;99.90;;;;;;5113893;28;20200;-54
2023/09/01 06:08:36;;;;;;;10.07;4.30;;;13.90;1.00;;;;;;5113358;28;20538;-53
2023/09/01 06:11:08;;;;;;;5.23;3.77;;;14.10;1.00;;;;;;5113094;28;20259;-53
2023/09/01 06:13:34;;;;;;;5.63;3.63;;;14.20;1.00;;;;;;5113694;28;20636;-52
2023/09/01 06:16:03;;;;;;;5.60;3.40;;;14.10;99.90;;;;;;5113529;28;20420;-54
2023/09/01 06:18:29;;;;;;;7.50;3.40;;;14.00;1.00;;;;;;5113991;28;20418;-54
2023/09/01 06:20:54;;;;;;;4.60;3.20;;;13.90;1.00;;;;;;5114155;28;20466;-54
2023/09/01 06:23:20;;;;;;;8.67;3.50;;;14.00;1.00;;;;;;5114230;28;20708;-54
2023/09/01 06:25:45;;;;;;;9.40;3.83;;;14.00;99.90;;;;;;5113631;28;20206;-54
2023/09/01 06:28:11;;;;;;;9.57;4.37;;;14.00;99.90;;;;;;5113507;28;20182;-54
2023/09/01 06:30:37;;;;;;;8.30;4.63;;;14.10;1.00;;;;;;5113786;28;20188;-54
2023/09/01 06:33:05;;;;;;;5.13;3.63;;;14.10;1.00;;;;;;5113641;28;20752;-54
2023/09/01 06:35:30;;;;;;;4.87;3.40;;;14.40;99.90;;;;;;5113916;28;20515;-54
2023/09/01 06:37:56;;;;;;;6.27;3.17;;;14.60;99.90;;;;;;5113740;28;20463;-54
2023/09/01 06:40:21;;;;;;;4.23;3.07;;;14.60;99.90;;;;;;5113794;28;20555;-54
2023/09/01 06:42:47;;;;;;;9.40;3.47;;;14.80;99.90;;;;;;5113542;28;20180;-54
2023/09/01 06:45:12;;;;;;;7.03;3.60;;;15.10;99.90;;;;;;5113482;28;20310;-54
2023/09/01 06:47:38;;;;;;;6.97;3.67;;;15.20;99.90;;;;;;5113241;28;20571;-55
2023/09/01 06:50:05;;;;;;;10.40;3.73;;;15.40;99.90;;;;;;5114458;28;20210;-54
2023/09/01 06:52:31;;;;;;;6.40;2.87;;;15.70;99.90;;;;;;5117205;28;20190;-55
2023/09/01 06:54:56;;;;;;;5.40;3.10;;;16.00;99.40;;;;;;5117361;28;20416;-54
2023/09/01 06:57:22;;;;;;;7.50;2.87;;;16.30;37.90;;;;;;5117112;28;20271;-55
2023/09/01 06:59:47;;;;;;;3.33;2.50;;;16.50;26.60;;;;;;5117984;28;20240;-55
2023/09/01 07:02:13;;;;;;;6.00;2.63;;;16.80;1.00;;;;;;5117190;28;20204;-55
2023/09/01 07:04:39;;;;;;;4.30;2.77;;;17.10;1.00;;;;;;5117242;28;20199;-54
2023/09/01 07:07:04;;;;;;;3.00;2.50;;;17.40;1.00;;;;;;5117617;28;20186;-54
2023/09/01 07:09:30;;;;;;;3.47;2.27;;;17.60;1.00;;;;;;5118003;28;20588;-55
2023/09/01 07:11:58;;;;;;;7.00;2.33;;;17.90;1.00;;;;;;5117319;28;20184;-55
2023/09/01 07:14:24;;;;;;;6.73;2.33;;;18.00;1.00;;;;;;5117424;28;20248;-55
2023/09/01 07:16:49;;;;;;;6.53;2.47;;;18.20;1.00;;;;;;5117422;28;20408;-54
2023/09/01 07:19:15;;;;;;;6.30;2.53;;;18.30;1.00;;;;;;5117243;28;20178;-56
2023/09/01 07:21:40;;;;;;;9.07;2.50;;;18.20;1.00;;;;;;5116905;28;20181;-55
2023/09/01 07:24:06;;;;;;;6.63;1.90;;;18.20;1.00;;;;;;5117384;28;20256;-54
2023/09/01 07:26:32;;;;;;;2.80;2.10;;;18.20;1.00;;;;;;5117017;28;20531;-55
2023/09/01 07:28:57;;;;;;;7.97;2.30;;;18.20;1.00;;;;;;5117000;28;20178;-55
2023/09/01 07:31:23;;;;;;;5.43;2.10;;;18.30;1.00;;;;;;5116640;28;20340;-55
2023/09/01 07:33:49;;;;;;;9.23;2.57;;;18.40;1.00;;;;;;5116403;28;20189;-55
2023/09/01 07:36:14;;;;;;;6.50;2.30;;;18.40;1.00;;;;;;5116498;28;20174;-55
2023/09/01 07:38:40;;;;;;;5.70;2.40;;;18.30;1.00;;;;;;5116805;28;20207;-56
2023/09/01 07:41:09;;;;;;;3.73;2.00;;;18.40;1.00;;;;;;5116750;28;20183;-55
2023/09/01 07:43:35;;;;;;;4.00;2.10;;;18.60;1.00;;;;;;5116510;28;20416;-55
2023/09/01 07:46:02;;;;;;;5.20;2.10;;;18.90;1.00;;;;;;5116074;28;20463;-54
2023/09/01 07:48:28;;;;;;;6.97;2.27;;;19.20;1.00;;;;;;5116516;28;20427;-56
2023/09/01 07:50:55;;;;;;;4.77;2.17;;;19.50;1.00;;;;;;5116147;28;20807;-55
2023/09/01 07:53:20;;;;;;;6.20;2.23;;;20.00;1.00;;;;;;5116443;28;20531;-55
2023/09/01 07:55:46;;;;;;;5.20;2.50;;;20.40;1.00;;;;;;5116246;28;20409;-55
2023/09/01 07:58:12;;;;;;;8.53;1.50;;;20.90;1.00;;;;;;5116194;28;20177;-56
2023/09/01 08:00:39;;;;;;;2.40;1.97;;;20.90;1.00;;;;;;5116388;28;20253;-55
2023/09/01 08:03:10;;;;;;;7.17;2.00;;;21.00;1.00;;;;;;5114537;28;20215;-55
2023/09/01 08:05:39;;;;;;;3.57;1.53;;;21.30;1.00;;;;;;5116140;28;20480;-53
2023/09/01 08:08:06;;;;;;;3.90;1.70;;;21.50;1.00;;;;;;5116042;28;20426;-55
2023/09/01 08:10:31;;;;;;;3.70;1.40;;;21.40;1.00;;;;;;5116080;28;20409;-55
2023/09/01 08:12:57;;;;;;;7.63;1.60;;;21.20;1.00;;;;;;5115939;28;20405;-56
2023/09/01 08:15:23;;;;;;;5.07;1.73;;;21.30;1.00;;;;;;5116091;28;20182;-55
2023/09/01 08:17:50;;;;;;;5.43;1.77;;;21.40;1.00;;;;;;5115796;28;20271;-55
2023/09/01 08:20:17;;;;;;;6.30;1.67;;;21.50;1.00;;;;;;5115833;28;20188;-56
2023/09/01 08:22:43;;;;;;;5.13;1.80;;;21.30;1.00;;;;;;5115987;28;20967;-55
2023/09/01 08:25:09;;;;;;;4.83;1.97;;;21.50;1.00;;;;;;5122822;28;20466;-55
2023/09/01 08:27:34;;;;;;;4.27;1.90;;;21.50;1.00;;;;;;5124485;28;20195;-56
2023/09/01 08:30:00;;;;;;;4.27;1.73;;;21.10;1.00;;;;;;5117361;28;20829;-56
2023/09/01 08:32:26;;;;;;;5.20;1.67;;;21.00;1.00;;;;;;5115483;28;20181;-56
2023/09/01 08:34:51;;;;;;;4.47;2.40;;;21.10;1.00;;;;;;5115760;28;20192;-56
2023/09/01 08:37:18;;;;;;;5.33;1.90;;;21.20;1.00;;;;;;5115426;28;20184;-56
2023/09/01 08:39:43;;;;;;;4.13;1.80;;;21.50;1.00;;;;;;5114331;28;20250;-55
2023/09/01 08:42:10;;;;;;;2.20;1.80;;;21.90;1.00;;;;;;5115241;28;20419;-56
2023/09/01 08:44:40;;;;;;;3.10;1.90;;;22.40;1.00;;;;;;5115229;28;20207;-57
2023/09/01 08:47:07;;;;;;;3.90;2.10;;;22.80;1.00;;;;;;5114792;28;20414;-55
2023/09/01 08:49:33;;;;;;;4.20;1.50;;;22.90;1.00;;;;;;5114577;28;20914;-55
2023/09/01 08:51:59;;;;;;;3.00;1.70;;;22.90;1.00;;;;;;5113631;28;20441;-54
2023/09/01 08:54:25;;;;;;;8.73;1.87;;;22.90;1.00;;;;;;5112247;28;20922;-57
2023/09/01 08:56:51;;;;;;;3.60;1.90;;;22.40;1.00;;;;;;5115007;28;20402;-55
2023/09/01 08:59:17;;;;;;;4.37;1.63;;;22.30;1.00;;;;;;5115180;28;20990;-55
2023/09/01 09:01:42;;;;;;;8.53;2.00;;;21.90;1.00;;;;;;5114935;28;20185;-55
2023/09/01 09:04:15;;;;;;;5.10;1.90;;;21.60;1.00;;;;;;5115044;28;20200;-53
2023/09/01 09:06:42;;;;;;;6.07;2.00;;;22.00;1.00;;;;;;5115094;28;20176;-54
2023/09/01 09:09:14;;;;;;;5.50;1.40;;;22.20;1.00;;;;;;5114830;28;20775;-54
2023/09/01 09:11:57;;;;;;;3.63;1.80;;;22.30;1.00;;;;;;5114661;28;20172;-54
2023/09/01 09:14:24;;;;;;;4.80;1.93;;;22.40;1.00;;;;;;5114593;28;20397;-55
2023/09/01 09:16:57;;;;;;;2.90;1.70;;;22.40;1.00;;;;;;5114299;28;20428;-56
2023/09/01 09:19:24;;;;;;;6.93;1.97;;;22.30;1.00;;;;;;5114307;28;20426;-54
2023/09/01 09:22:04;;;;;;;4.80;1.80;;;21.90;1.00;;;;;;5114607;28;20467;-55
2023/09/01 09:24:34;;;;;;;4.57;1.20;;;21.80;1.00;;;;;;5114348;28;20479;-54
2023/09/01 09:27:00;;;;;;;2.70;1.50;;;21.90;1.00;;;;;;5114704;28;20509;-53
2023/09/01 09:29:26;;;;;;;1.70;1.20;;;21.80;1.00;;;;;;5114454;28;20448;-55
2023/09/01 09:31:51;;;;;;;4.75;1.55;;;21.80;1.00;;;;;;5114084;28;20399;-54
2023/09/01 09:34:25;;;;;;;4.03;1.60;;;21.90;1.00;;;;;;5114266;28;20289;-55
2023/09/01 09:36:51;;;;;;;3.30;1.57;;;22.00;1.00;;;;;;5114175;28;20177;-55
2023/09/01 09:39:24;;;;;;;6.17;1.40;;;21.90;1.00;;;;;;5114214;28;20478;-56
2023/09/01 09:41:49;;;;;;;2.77;1.40;;;21.70;1.00;;;;;;5114409;28;20673;-54
2023/09/01 09:44:23;;;;;;;2.27;1.70;;;21.50;1.00;;;;;;5113872;28;20493;-53
2023/09/01 09:46:49;;;;;;;6.67;1.73;;;21.30;1.00;;;;;;5114175;28;20179;-53
2023/09/01 09:49:14;;;;;;;7.60;1.67;;;21.20;1.00;;;;;;5113795;28;20499;-53
2023/09/01 09:51:42;;;;;;;4.47;1.40;;;21.10;1.00;;;;;;5114521;28;20184;-53
2023/09/01 09:54:10;;;;;;;6.50;1.43;;;21.10;1.00;;;;;;5113871;28;20573;-54
2023/09/01 09:56:38;;;;;;;4.77;1.70;;;21.30;1.00;;;;;;5113741;28;20433;-53
2023/09/01 09:59:04;;;;;;;5.60;1.70;;;21.40;1.00;;;;;;5113842;28;20429;-54
2023/09/01 10:01:33;;;;;;;4.77;1.60;;;21.40;1.00;;;;;;5113677;28;20408;-54
2023/09/01 10:04:05;;;;;;;5.27;1.87;;;21.50;1.00;;;;;;5113874;28;20409;-53
2023/09/01 10:06:35;;;;;;;6.13;2.40;;;21.70;1.00;;;;;;5113484;28;20411;-53
2023/09/01 10:09:05;;;;;;;3.07;1.83;;;22.10;1.00;;;;;;5113764;28;20476;-52
2023/09/01 10:11:31;;;;;;;5.20;1.80;;;22.50;1.00;;;;;;5114049;28;20403;-52
2023/09/01 10:13:57;;;;;;;6.20;1.77;;;22.80;1.00;;;;;;5113382;28;20907;-54
2023/09/01 10:16:23;;;;;;;5.20;1.83;;;23.00;1.00;;;;;;5113714;28;20411;-54
2023/09/01 10:18:49;;;;;;;9.97;1.90;;;23.10;1.00;;;;;;5114146;28;20471;-53
2023/09/01 10:21:16;;;;;;;4.90;1.80;;;22.90;1.00;;;;;;5113743;28;20180;-52
2023/09/01 10:23:43;;;;;;;5.13;1.57;;;22.70;1.00;;;;;;5113147;28;20501;-52
2023/09/01 10:26:15;;;;;;;6.63;1.43;;;22.60;1.00;;;;;;5116209;28;20496;-52
2023/09/01 10:29:07;;;;;;;2.20;1.50;;;22.50;1.00;;;;;;5117840;28;20419;-53
2023/09/01 10:31:34;;;;;;;2.57;1.60;;;22.40;1.00;;;;;;5113645;28;20483;-54
2023/09/01 10:34:13;;;;;;;5.10;1.73;;;22.40;1.00;;;;;;5118100;28;20425;-52
2023/09/01 10:36:43;;;;;;;4.37;1.50;;;22.30;1.00;;;;;;5117518;28;20421;-54
2023/09/01 10:39:24;;;;;;;3.30;1.43;;;22.70;1.00;;;;;;5117799;28;20421;-54
2023/09/01 10:41:59;;;;;;;3.50;1.70;;;23.60;1.00;;;;;;5117702;28;20485;-53
2023/09/01 10:44:48;;;;;;;4.40;2.33;;;24.00;1.00;;;;;;5117741;28;20466;-54
2023/09/01 10:47:31;;;;;;;5.00;1.77;;;23.80;1.00;;;;;;5104240;28;20520;-54
2023/09/01 10:49:57;;;;;;;3.27;1.70;;;23.50;1.00;;;;;;5117321;28;20446;-53
2023/09/01 10:52:23;;;;;;;3.10;1.70;;;23.50;1.00;;;;;;5117362;28;20434;-54
2023/09/01 10:55:05;;;;;;;2.13;1.40;;;23.20;1.00;;;;;;5117347;28;20418;-54
2023/09/01 10:57:45;;;;;;;4.03;2.03;;;23.30;1.00;;;;;;5117489;28;20419;-54
2023/09/01 11:00:31;;;;;;;4.30;1.60;;;23.40;1.00;;;;;;5117204;28;20398;-54
2023/09/01 11:03:32;;;;;;;3.10;1.30;;;23.30;1.00;;;;;;5117143;28;20993;-53
2023/09/01 11:06:01;;;;;;;3.53;1.30;;;23.40;1.00;;;;;;5116841;28;20498;-53
2023/09/01 11:08:27;;;;;;;3.80;1.70;;;23.70;1.00;;;;;;5117243;28;20441;-55
2023/09/01 11:11:05;;;;;;;2.37;1.40;;;23.60;1.00;;;;;;5116769;28;20925;-54
2023/09/01 11:13:31;;;;;;;7.10;1.80;;;23.80;1.00;;;;;;5117311;28;20483;-54
2023/09/01 11:15:56;;;;;;;4.47;1.50;;;24.20;1.00;;;;;;5116913;28;20480;-56
2023/09/01 11:18:24;;;;;;;8.60;1.80;;;24.20;1.00;;;;;;5117030;28;20178;-55
2023/09/01 11:20:54;;;;;;;2.27;1.60;;;23.90;1.00;;;;;;5116564;28;20169;-55
2023/09/01 11:23:22;;;;;;;3.13;1.63;;;23.80;1.00;;;;;;5116679;28;20462;-54
2023/09/01 11:26:00;;;;;;;4.83;1.60;;;23.80;1.00;;;;;;5116643;28;20995;-55
2023/09/01 11:28:27;;;;;;;2.30;1.30;;;24.30;1.00;;;;;;5116661;28;20774;-54
2023/09/01 11:30:54;;;;;;;3.17;1.83;;;25.10;1.00;;;;;;5116259;28;20453;-54
2023/09/01 11:33:24;;;;;;;4.83;2.20;;;25.40;1.00;;;;;;5116612;28;20450;-54
2023/09/01 11:36:03;;;;;;;2.97;1.57;;;25.00;1.00;;;;;;5115616;28;20426;-53
2023/09/01 11:38:29;;;;;;;1.90;1.40;;;24.60;1.00;;;;;;5116961;28;20410;-54
2023/09/01 11:40:55;;;;;;;4.00;1.80;;;24.40;1.00;;;;;;5116494;28;20422;-55
2023/09/01 11:43:21;;;;;;;7.17;1.80;;;24.50;1.00;;;;;;5116361;28;20628;-55
2023/09/01 11:45:48;;;;;;;4.53;2.00;;;24.70;1.00;;;;;;5116404;28;20565;-55
2023/09/01 11:48:24;;;;;;;4.70;1.50;;;24.90;1.00;;;;;;5116634;28;20426;-55
2023/09/01 11:50:54;;;;;;;3.73;1.60;;;24.40;1.00;;;;;;5116788;28;20405;-54
2023/09/01 11:53:32;;;;;;;3.30;1.60;;;24.00;1.00;;;;;;5116389;28;20411;-56
2023/09/01 11:55:59;;;;;;;3.13;1.80;;;23.60;1.00;;;;;;5097321;28;20483;-55
2023/09/01 11:58:33;;;;;;;3.03;1.37;;;23.60;1.00;;;;;;5116342;28;20421;-55
2023/09/01 12:01:17;;;;;;;4.97;1.90;;;23.90;1.00;;;;;;5115881;28;20485;-55
2023/09/01 12:03:49;;;;;;;3.13;1.60;;;24.40;1.00;;;;;;5114785;28;20414;-53
2023/09/01 12:06:25;;;;;;;2.77;1.40;;;24.70;1.00;;;;;;5114488;28;20477;-55
2023/09/01 12:09:09;;;;;;;2.53;1.20;;;24.80;1.00;;;;;;5114709;28;20751;-54
2023/09/01 12:11:34;;;;;;;2.90;1.90;;;24.90;1.00;;;;;;5115002;28;20402;-53
2023/09/01 12:14:31;;;;;;;3.20;1.70;;;25.00;1.00;;;;;;5115575;28;20773;-53
2023/09/01 12:16:58;;;;;;;2.60;1.80;;;25.00;1.00;;;;;;5115608;28;20176;-53
2023/09/01 12:19:26;;;;;;;2.87;1.43;;;24.80;1.00;;;;;;5115567;28;20425;-54
2023/09/01 12:21:54;;;;;;;2.27;1.50;;;25.00;1.00;;;;;;5115230;28;20474;-52
2023/09/01 12:24:19;;;;;;;4.53;1.80;;;25.10;1.00;;;;;;5115311;28;20470;-54
2023/09/01 12:26:46;;;;;;;1.70;1.20;;;25.20;1.00;;;;;;5115593;28;20430;-53
2023/09/01 12:29:12;;;;;;;1.83;1.30;;;25.30;1.00;;;;;;5115613;28;20184;-54
2023/09/01 12:31:37;;;;;;;2.60;1.30;;;25.40;1.00;;;;;;5115213;28;20803;-54
2023/09/01 12:34:03;;;;;;;2.50;1.70;;;25.40;1.00;;;;;;5115110;28;20215;-54
2023/09/01 12:36:30;;;;;;;2.23;1.67;;;25.80;1.00;;;;;;5115564;28;20181;-54
2023/09/01 12:38:55;;;;;;;2.50;1.30;;;26.30;1.00;;;;;;5115219;28;20558;-54
2023/09/01 12:41:21;;;;;;;2.30;1.37;;;26.40;1.00;;;;;;5114930;28;20422;-53
2023/09/01 12:43:46;;;;;;;2.97;1.63;;;26.30;99.90;;;;;;5115283;28;20632;-54
2023/09/01 12:46:12;;;;;;;3.43;1.80;;;26.30;99.90;;;;;;5115243;28;20250;-53
2023/09/01 12:48:38;;;;;;;4.87;1.70;;;26.00;99.90;;;;;;5114204;28;20181;-54
2023/09/01 12:51:03;;;;;;;6.33;1.77;;;25.90;99.90;;;;;;5115155;28;20188;-53
2023/09/01 12:53:29;;;;;;;2.50;1.40;;;25.60;99.90;;;;;;5115026;28;20524;-52
2023/09/01 12:55:58;;;;;;;2.90;1.73;;;25.10;99.90;;;;;;5114862;28;20418;-54